| time (UTC) | temp F | wind direction | speed knots | gust knots | rain 1hr in | rain 24hr in | rain mn in | humidity % | barometer mb |
| 20260509131554 | 43 | 318 | 0.0 | 1.7 | 0.00 | 0.00 | 0.00 | 87 | 1019.0 |
| 20260509130032 | 45 | 302 | 0.9 | 3.5 | 0.00 | 0.00 | 0.00 | 86 | 1018.7 |
| 20260509124530 | 46 | 173 | 0.9 | 2.6 | 0.00 | 0.00 | 0.00 | 86 | 1018.7 |
| 20260509123030 | 46 | 143 | 0.0 | 2.6 | 0.00 | 0.00 | 0.00 | 86 | 1018.6 |
| 20260509121531 | 45 | 180 | 0.0 | 2.6 | 0.00 | 0.00 | 0.00 | 85 | 1018.7 |
| 20260509120040 | 46 | 145 | 0.0 | 1.7 | 0.00 | 0.00 | 0.00 | 85 | 1018.6 |
| 20260509113029 | 46 | 161 | 0.9 | 2.6 | 0.00 | 0.00 | 0.00 | 83 | 1018.6 |
| 20260509111535 | 47 | 200 | 1.7 | 3.5 | 0.00 | 0.00 | 0.00 | 81 | 1018.5 |
| 20260509104530 | 50 | 36 | 1.7 | 5.2 | 0.00 | 0.00 | 0.00 | 78 | 1018.6 |
| 20260509103032 | 51 | 34 | 2.6 | 4.3 | 0.00 | 0.00 | 0.00 | 78 | 1018.7 |
| 20260509101529 | 51 | 36 | 2.6 | 4.3 | 0.00 | 0.00 | 0.00 | 78 | 1018.7 |
| 20260509100108 | 51 | 39 | 2.6 | 4.3 | 0.00 | 0.00 | 0.00 | 77 | 1018.7 |
| 20260509094529 | 51 | 32 | 3.5 | 5.2 | 0.00 | 0.00 | 0.00 | 77 | 1018.7 |
| 20260509093029 | 50 | 37 | 2.6 | 4.3 | 0.00 | 0.00 | 0.00 | 76 | 1018.8 |
| 20260509091531 | 51 | 20 | 2.6 | 3.5 | 0.00 | 0.00 | 0.00 | 76 | 1018.9 |
| 20260509090028 | 51 | 48 | 1.7 | 4.3 | 0.00 | 0.00 | 0.00 | 76 | 1019.0 |
| 20260509084530 | 50 | 336 | 0.9 | 3.5 | 0.00 | 0.00 | 0.00 | 77 | 1019.1 |
| 20260509083033 | 50 | 289 | 0.9 | 4.3 | 0.00 | 0.00 | 0.00 | 76 | 1019.2 |
| 20260509081531 | 51 | 246 | 2.6 | 6.1 | 0.00 | 0.00 | 0.00 | 74 | 1019.3 |
| 20260509080107 | 52 | 207 | 1.7 | 3.5 | 0.00 | 0.00 | 0.00 | 74 | 1019.5 |
| 20260509073031 | 53 | 185 | 3.5 | 7.8 | 0.00 | 0.00 | 0.00 | 73 | 1019.5 |
| 20260509071531 | 53 | 193 | 3.5 | 7.8 | 0.00 | 0.00 | 0.00 | 72 | 1019.5 |
| 20260509070032 | 53 | 211 | 3.5 | 7.0 | 0.00 | 0.00 | 0.00 | 70 | 1019.6 |
| 20260509064530 | 54 | 240 | 2.6 | 6.1 | 0.00 | 0.00 | 0.00 | 68 | 1019.7 |
| 20260509063031 | 54 | 299 | 0.0 | 4.3 | 0.00 | 0.00 | 0.00 | 68 | 1019.9 |
| 20260509061538 | 54 | 284 | 1.7 | 5.2 | 0.00 | 0.00 | 0.00 | 68 | 1019.8 |
| 20260509060032 | 54 | 290 | 0.9 | 2.6 | 0.00 | 0.00 | 0.00 | 67 | 1019.8 |
| 20260509054529 | 55 | 306 | 0.9 | 4.3 | 0.00 | 0.00 | 0.00 | 65 | 1019.7 |
| 20260509053031 | 56 | 191 | 2.6 | 8.7 | 0.00 | 0.00 | 0.00 | 64 | 1019.7 |
| 20260509043030 | 55 | 146 | 3.5 | 6.1 | 0.00 | 0.00 | 0.00 | 64 | 1019.3 |
| 20260509041646 | 56 | 123 | 0.9 | 5.2 | 0.00 | 0.00 | 0.00 | 63 | 1019.1 |
| 20260509040029 | 56 | 177 | 1.7 | 3.5 | 0.00 | 0.00 | 0.00 | 63 | 1018.9 |
| 20260509034530 | 57 | 223 | 3.5 | 5.2 | 0.00 | 0.00 | 0.00 | 61 | 1018.6 |
| 20260509033031 | 58 | 218 | 4.3 | 7.8 | 0.00 | 0.00 | 0.00 | 59 | 1018.4 |
| 20260509031531 | 59 | 230 | 6.1 | 11.3 | 0.00 | 0.00 | 0.00 | 56 | 1018.2 |
| 20260509030030 | 61 | 225 | 7.0 | 13.9 | 0.00 | 0.00 | 0.00 | 54 | 1018.0 |
| 20260509024529 | 61 | 214 | 8.7 | 15.6 | 0.00 | 0.00 | 0.00 | 54 | 1017.9 |
| 20260509023032 | 62 | 214 | 8.7 | 13.9 | 0.00 | 0.00 | 0.00 | 52 | 1017.8 |
| 20260509021616 | 63 | 214 | 8.7 | 13.9 | 0.00 | 0.00 | 0.00 | 51 | 1017.7 |
| 20260509020108 | 64 | 215 | 8.7 | 17.4 | 0.00 | 0.00 | 0.00 | 49 | 1017.6 |
| 20260509014605 | 65 | 218 | 10.4 | 17.4 | 0.00 | 0.00 | 0.00 | 48 | 1017.4 |
| 20260509013030 | 65 | 237 | 9.6 | 20.0 | 0.00 | 0.00 | 0.00 | 46 | 1017.4 |
| 20260509010029 | 69 | 256 | 7.8 | 19.1 | 0.00 | 0.00 | 0.00 | 43 | 1017.2 |
| 20260509004530 | 69 | 256 | 8.7 | 14.8 | 0.00 | 0.00 | 0.00 | 42 | 1017.1 |
| 20260509001531 | 70 | 259 | 9.6 | 18.2 | 0.00 | 0.00 | 0.00 | 39 | 1016.8 |
| 20260509000041 | 70 | 253 | 8.7 | 19.1 | 0.00 | 0.00 | 0.00 | 39 | 1016.7 |
| 20260508234530 | 70 | 254 | 9.6 | 19.1 | 0.00 | 0.00 | 0.00 | 39 | 1016.7 |
| 20260508233031 | 69 | 250 | 9.6 | 20.9 | 0.00 | 0.00 | 0.00 | 39 | 1016.6 |
| 20260508231532 | 70 | 250 | 11.3 | 20.9 | 0.00 | 0.00 | 0.00 | 40 | 1016.6 |
| 20260508230029 | 69 | 254 | 10.4 | 19.1 | 0.00 | 0.00 | 0.00 | 42 | 1016.7 |
| 20260508224532 | 69 | 255 | 11.3 | 20.0 | 0.00 | 0.00 | 0.00 | 42 | 1016.8 |
| 20260508223107 | 68 | 252 | 13.0 | 21.7 | 0.00 | 0.00 | 0.00 | 43 | 1016.7 |
| 20260508221605 | 68 | 252 | 13.0 | 24.3 | 0.00 | 0.00 | 0.00 | 44 | 1016.7 |
| 20260508214530 | 68 | 256 | 10.4 | 18.2 | 0.00 | 0.00 | 0.00 | 45 | 1016.8 |
| 20260508213032 | 67 | 254 | 11.3 | 21.7 | 0.00 | 0.00 | 0.00 | 46 | 1016.9 |
| 20260508211529 | 66 | 256 | 13.0 | 24.3 | 0.00 | 0.00 | 0.00 | 47 | 1016.8 |
| 20260508210031 | 67 | 253 | 13.0 | 27.8 | 0.00 | 0.00 | 0.00 | 47 | 1016.8 |
| 20260508204530 | 67 | 253 | 12.2 | 28.7 | 0.00 | 0.00 | 0.00 | 47 | 1016.9 |
| 20260508201530 | 66 | 265 | 12.2 | 22.6 | 0.00 | 0.00 | 0.00 | 48 | 1016.7 |
| 20260508200054 | 67 | 268 | 10.4 | 20.9 | 0.00 | 0.00 | 0.00 | 49 | 1016.8 |
| 20260508194532 | 67 | 247 | 8.7 | 18.2 | 0.00 | 0.00 | 0.00 | 49 | 1016.8 |
| 20260508193031 | 65 | 251 | 7.8 | 19.1 | 0.00 | 0.00 | 0.00 | 51 | 1017.0 |
| 20260508191530 | 64 | 266 | 8.7 | 19.1 | 0.00 | 0.00 | 0.00 | 53 | 1017.0 |
| 20260508190030 | 60 | 253 | 9.6 | 18.2 | 0.00 | 0.00 | 0.00 | 57 | 1017.1 |
| 20260508184531 | 58 | 256 | 9.6 | 19.1 | 0.00 | 0.00 | 0.00 | 59 | 1017.2 |
| 20260508183030 | 55 | 296 | 6.1 | 12.2 | 0.00 | 0.00 | 0.00 | 62 | 1017.4 |
| 20260508181531 | 54 | 263 | 5.2 | 11.3 | 0.00 | 0.00 | 0.00 | 64 | 1017.4 |
| 20260508180032 | 53 | 285 | 5.2 | 11.3 | 0.00 | 0.00 | 0.00 | 64 | 1017.1 |
| 20260508174529 | 53 | 276 | 5.2 | 13.9 | 0.00 | 0.00 | 0.00 | 64 | 1017.2 |
| 20260508173029 | 53 | 277 | 5.2 | 12.2 | 0.00 | 0.00 | 0.00 | 64 | 1016.9 |
| 20260508171535 | 54 | 280 | 4.3 | 10.4 | 0.00 | 0.00 | 0.00 | 64 | 1016.7 |
| 20260508170029 | 54 | 280 | 6.1 | 16.5 | 0.00 | 0.00 | 0.00 | 64 | 1016.5 |
| 20260508164532 | 54 | 272 | 7.0 | 14.8 | 0.00 | 0.00 | 0.00 | 65 | 1016.5 |
| 20260508163029 | 55 | 270 | 8.7 | 16.5 | 0.00 | 0.00 | 0.00 | 64 | 1016.7 |
| 20260508161530 | 56 | 277 | 7.8 | 15.6 | 0.00 | 0.00 | 0.00 | 64 | 1016.7 |
| 20260508160030 | 56 | 281 | 8.7 | 16.5 | 0.00 | 0.00 | 0.00 | 64 | 1016.6 |
| 20260508154532 | 55 | 279 | 9.6 | 19.1 | 0.00 | 0.00 | 0.00 | 65 | 1016.6 |
| 20260508153030 | 55 | 271 | 8.7 | 18.2 | 0.00 | 0.00 | 0.00 | 66 | 1016.5 |
| 20260508151605 | 55 | 264 | 7.8 | 15.6 | 0.00 | 0.00 | 0.00 | 66 | 1016.3 |
| 20260508150031 | 55 | 259 | 7.0 | 15.6 | 0.00 | 0.00 | 0.00 | 66 | 1016.1 |
| 20260508144530 | 53 | 319 | 3.5 | 7.8 | 0.00 | 0.00 | 0.00 | 65 | 1015.9 |
| 20260508143031 | 53 | 348 | 5.2 | 10.4 | 0.00 | 0.00 | 0.00 | 65 | 1015.6 |
| 20260508141604 | 53 | 359 | 7.0 | 12.2 | 0.00 | 0.00 | 0.00 | 65 | 1015.4 |
| 20260508140032 | 52 | 360 | 6.1 | 12.2 | 0.00 | 0.00 | 0.00 | 67 | 1015.2 |
| 20260508133156 | 52 | 10 | 5.2 | 7.8 | 0.00 | 0.00 | 0.00 | 69 | 1014.9 |